Time;durP1;ratioP1;P1;durP2;ratioP2;P2;SDS_P1;SDS_P2;PMS_P1;PMS_P2;Temp;Humidity;BMP_temperature;BMP_pressure;BME280_temperature;BME280_humidity;BME280_pressure;Samples;Min_cycle;Max_cycle;Signal;HPM_P1;HPM_P2
2022/11/11 00:01:07;;;;;;;0.73;0.40;;;15.00;99.90;;;;;;5043323;28;20045;-82
2022/11/11 00:03:34;;;;;;;0.93;0.60;;;15.10;99.90;;;;;;5041455;28;20219;-82
2022/11/11 00:06:02;;;;;;;1.08;0.40;;;15.00;99.90;;;;;;5021664;28;20049;-82
2022/11/11 00:08:29;;;;;;;0.90;0.40;;;15.00;99.90;;;;;;5004036;28;20132;-82
2022/11/11 00:11:06;;;;;;;0.70;0.30;;;15.00;99.90;;;;;;5031896;28;20046;-82
2022/11/11 00:13:33;;;;;;;0.80;0.40;;;15.00;99.90;;;;;;4995074;28;20060;-83
2022/11/11 00:16:08;;;;;;;1.30;0.40;;;15.00;99.90;;;;;;5020950;28;20067;-83
2022/11/11 00:27:08;;;;;;;1.05;0.60;;;15.20;99.90;;;;;;5029747;28;20574;-83
2022/11/11 00:29:36;;;;;;;1.10;0.60;;;15.20;99.90;;;;;;5025613;28;20503;-83
2022/11/11 00:32:22;;;;;;;2.28;0.80;;;15.20;99.90;;;;;;5043844;28;20065;-83
2022/11/11 00:37:35;;;;;;;2.33;0.70;;;15.10;99.90;;;;;;5022089;28;20064;-83
2022/11/11 00:40:02;;;;;;;1.40;0.65;;;15.20;99.90;;;;;;5028916;28;20457;-84
2022/11/11 00:42:29;;;;;;;0.75;0.47;;;15.20;99.90;;;;;;5025343;28;20055;-83
2022/11/11 00:44:56;;;;;;;0.65;0.43;;;15.20;99.90;;;;;;5025428;28;20143;-83
2022/11/11 00:53:16;;;;;;;1.40;0.50;;;15.20;99.90;;;;;;5041431;28;20102;-82
2022/11/11 00:55:51;;;;;;;0.85;0.43;;;15.20;99.90;;;;;;5042951;28;20449;-82
2022/11/11 00:58:18;;;;;;;1.27;0.57;;;15.20;99.90;;;;;;5025842;28;20505;-83
2022/11/11 01:00:44;;;;;;;0.90;0.50;;;15.20;99.90;;;;;;5040946;28;20051;-82
2022/11/11 01:03:11;;;;;;;1.02;0.50;;;15.20;99.90;;;;;;5039695;28;20076;-82
2022/11/11 01:05:38;;;;;;;0.82;0.50;;;15.20;99.90;;;;;;5021260;28;20543;-82
2022/11/11 01:08:05;;;;;;;1.05;0.50;;;15.20;99.90;;;;;;5022492;28;20084;-82
2022/11/11 01:10:37;;;;;;;0.65;0.50;;;15.20;99.90;;;;;;5014901;28;20080;-82
2022/11/11 01:13:11;;;;;;;2.20;0.68;;;15.20;99.90;;;;;;5025787;28;20232;-84
2022/11/11 01:15:44;;;;;;;2.53;0.70;;;15.20;99.90;;;;;;5039715;28;20049;-83
2022/11/11 01:18:13;;;;;;;0.57;0.45;;;15.20;99.90;;;;;;5007406;28;20114;-83
2022/11/11 01:20:40;;;;;;;1.45;0.77;;;15.20;99.90;;;;;;5024570;28;20133;-83
2022/11/11 01:23:08;;;;;;;0.77;0.57;;;15.20;99.90;;;;;;5040635;28;20076;-83
2022/11/11 01:25:35;;;;;;;0.88;0.50;;;15.20;99.90;;;;;;5024595;28;20483;-82
2022/11/11 01:28:03;;;;;;;0.82;0.55;;;15.20;99.90;;;;;;5040945;28;20098;-83
2022/11/11 01:30:30;;;;;;;2.05;0.40;;;15.20;99.90;;;;;;5041097;28;20338;-83
2022/11/11 01:32:57;;;;;;;0.70;0.50;;;15.20;99.90;;;;;;5023519;28;20080;-83
2022/11/11 01:35:24;;;;;;;1.17;0.60;;;15.20;99.90;;;;;;5042315;28;20049;-83
2022/11/11 01:37:51;;;;;;;0.70;0.40;;;15.20;99.90;;;;;;5041660;28;20503;-82
2022/11/11 01:40:18;;;;;;;1.75;0.50;;;15.30;99.90;;;;;;5024477;28;20049;-83
2022/11/11 01:42:47;;;;;;;0.13;0.13;;;15.30;99.90;;;;;;5042152;28;20240;-83
2022/11/11 01:45:53;;;;;;;1.60;0.70;;;15.30;99.90;;;;;;5021063;28;20041;-82
2022/11/11 01:51:35;;;;;;;0.90;0.52;;;15.20;99.90;;;;;;5023221;28;20508;-83
2022/11/11 01:54:05;;;;;;;0.43;0.40;;;15.20;99.90;;;;;;5040528;28;20045;-85
2022/11/11 01:56:32;;;;;;;0.22;0.20;;;15.20;99.90;;;;;;5008270;28;20057;-82
2022/11/11 01:59:01;;;;;;;0.68;0.47;;;15.20;99.90;;;;;;5007688;28;20049;-82
2022/11/11 02:01:28;;;;;;;0.52;0.30;;;15.20;99.90;;;;;;5039722;28;20146;-81
2022/11/11 02:06:40;;;;;;;0.70;0.50;;;15.20;99.90;;;;;;5027959;28;20182;-83
2022/11/11 02:09:08;;;;;;;0.50;0.50;;;15.20;99.90;;;;;;5010977;28;20052;-82
2022/11/11 02:14:35;;;;;;;1.30;0.40;;;15.20;99.90;;;;;;5029631;28;20331;-82
2022/11/11 02:17:04;;;;;;;2.03;0.50;;;15.10;99.90;;;;;;5043469;28;20430;-82
2022/11/11 02:20:01;;;;;;;0.50;0.40;;;15.10;99.90;;;;;;5008862;28;20377;-82
2022/11/11 02:22:34;;;;;;;0.77;0.45;;;15.10;99.90;;;;;;5036943;28;20485;-82
2022/11/11 02:25:01;;;;;;;1.20;0.40;;;15.10;99.90;;;;;;5045058;28;20049;-82
2022/11/11 02:27:28;;;;;;;0.43;0.43;;;15.10;99.90;;;;;;5027130;28;20053;-82
2022/11/11 02:29:59;;;;;;;2.47;0.65;;;15.10;99.90;;;;;;5007586;28;20335;-82
2022/11/11 02:32:26;;;;;;;1.33;0.55;;;15.10;99.90;;;;;;5025416;28;20048;-81
2022/11/11 02:34:52;;;;;;;1.10;0.60;;;15.10;99.90;;;;;;5020590;28;20049;-81
2022/11/11 02:37:24;;;;;;;0.65;0.30;;;15.10;99.90;;;;;;5004821;28;20115;-82
2022/11/11 02:39:53;;;;;;;0.30;0.20;;;15.10;99.90;;;;;;5027841;28;20060;-82
2022/11/11 02:42:30;;;;;;;1.08;0.35;;;15.00;99.90;;;;;;5015828;28;20049;-82
2022/11/11 02:44:58;;;;;;;0.77;0.40;;;15.10;99.90;;;;;;5045998;28;20451;-81
2022/11/11 02:47:25;;;;;;;0.45;0.30;;;15.00;99.90;;;;;;5009992;28;20122;-81
2022/11/11 02:49:53;;;;;;;0.63;0.40;;;15.00;99.90;;;;;;5026156;28;20136;-84
2022/11/11 02:52:20;;;;;;;1.77;0.30;;;15.10;99.90;;;;;;5010607;28;20049;-82
2022/11/11 02:54:48;;;;;;;1.52;0.50;;;15.00;99.90;;;;;;5045212;28;20076;-82
2022/11/11 02:57:15;;;;;;;0.90;0.40;;;15.10;99.90;;;;;;5027346;28;20045;-83
2022/11/11 02:59:42;;;;;;;0.95;0.47;;;15.10;99.90;;;;;;5011010;28;20080;-82
2022/11/11 03:02:09;;;;;;;1.17;0.50;;;15.10;99.90;;;;;;5026361;28;20049;-83
2022/11/11 03:04:37;;;;;;;1.90;0.40;;;15.10;99.90;;;;;;5010223;28;20059;-82
2022/11/11 03:07:04;;;;;;;1.10;0.40;;;15.10;99.90;;;;;;5027187;28;20115;-82
2022/11/11 03:09:31;;;;;;;1.00;0.55;;;15.10;99.90;;;;;;5027538;28;20241;-82
2022/11/11 03:11:58;;;;;;;0.57;0.38;;;15.10;99.90;;;;;;5027337;28;20052;-82
2022/11/11 03:14:25;;;;;;;0.38;0.30;;;15.10;99.90;;;;;;5043289;28;20061;-82
2022/11/11 03:19:38;;;;;;;0.22;0.20;;;15.20;99.90;;;;;;5028401;28;20538;-82
2022/11/11 03:22:04;;;;;;;1.00;0.50;;;15.10;99.90;;;;;;5043153;28;20064;-82
2022/11/11 03:27:36;;;;;;;0.95;0.50;;;15.10;99.90;;;;;;5043998;28;20408;-83
2022/11/11 03:30:03;;;;;;;0.70;0.38;;;15.10;99.90;;;;;;5011215;28;20045;-82
2022/11/11 03:32:31;;;;;;;0.77;0.40;;;15.10;99.90;;;;;;5042299;28;20048;-82
2022/11/11 03:34:57;;;;;;;0.77;0.35;;;15.10;99.90;;;;;;5043295;28;20084;-83
2022/11/11 03:40:10;;;;;;;0.30;0.30;;;15.00;99.90;;;;;;5047009;28;20048;-82
2022/11/11 03:42:37;;;;;;;0.88;0.47;;;15.10;99.90;;;;;;5030252;28;20048;-83
2022/11/11 03:45:04;;;;;;;1.40;0.70;;;15.00;99.90;;;;;;5030925;28;20399;-82
2022/11/11 03:47:30;;;;;;;1.05;0.60;;;15.00;99.90;;;;;;5047945;28;20101;-82
2022/11/11 03:49:57;;;;;;;0.75;0.40;;;15.00;99.90;;;;;;5046431;28;20064;-82
2022/11/11 03:52:24;;;;;;;0.50;0.50;;;14.90;99.90;;;;;;5030464;28;20074;-81
2022/11/11 03:54:50;;;;;;;0.80;0.70;;;14.90;99.90;;;;;;5014109;28;20049;-82
2022/11/11 03:57:30;;;;;;;0.95;0.40;;;14.90;99.90;;;;;;5031161;28;20130;-82
2022/11/11 03:59:57;;;;;;;0.47;0.40;;;14.90;99.90;;;;;;5032246;28;20147;-81
2022/11/11 04:10:40;;;;;;;1.05;0.52;;;14.80;99.90;;;;;;5033260;28;20481;-82
2022/11/11 04:16:07;;;;;;;0.40;0.30;;;14.80;99.90;;;;;;5013129;28;20081;-82
2022/11/11 04:26:53;;;;;;;0.50;0.40;;;14.70;99.90;;;;;;5033064;28;20059;-82
2022/11/11 04:29:30;;;;;;;1.15;0.40;;;14.60;99.90;;;;;;5029911;28;20412;-82
2022/11/11 04:34:57;;;;;;;0.52;0.40;;;14.50;99.90;;;;;;5031928;28;20127;-81
2022/11/11 04:37:24;;;;;;;1.23;0.50;;;14.50;99.90;;;;;;5029972;28;20049;-81
2022/11/11 04:42:38;;;;;;;0.43;0.30;;;14.50;99.90;;;;;;5032198;28;20056;-82
2022/11/11 04:48:12;;;;;;;0.80;0.47;;;14.40;99.90;;;;;;5031251;28;20048;-81
2022/11/11 04:50:40;;;;;;;0.30;0.30;;;14.40;99.90;;;;;;5044654;28;20065;-82
2022/11/11 04:53:09;;;;;;;1.48;0.47;;;14.40;99.90;;;;;;5029085;28;20052;-82
2022/11/11 04:58:24;;;;;;;2.03;0.60;;;14.30;99.90;;;;;;5046171;28;20084;-82
2022/11/11 05:00:51;;;;;;;1.05;0.43;;;14.40;99.90;;;;;;5046888;28;20059;-81
2022/11/11 05:03:20;;;;;;;1.00;0.50;;;14.30;99.90;;;;;;5046090;28;20226;-81
2022/11/11 05:11:19;;;;;;;2.35;0.80;;;14.20;99.90;;;;;;5031610;28;20061;-80
2022/11/11 05:22:33;;;;;;;2.00;0.80;;;14.20;99.90;;;;;;5023005;28;20055;-82
2022/11/11 05:25:48;;;;;;;1.10;0.60;;;14.20;99.90;;;;;;5031612;28;20416;-83
2022/11/11 05:27:56;;;;;;;0.80;0.45;;;14.20;99.90;;;;;;5032327;28;20437;-83
2022/11/11 05:30:23;;;;;;;1.95;0.80;;;14.20;99.90;;;;;;5013854;28;20141;-84
2022/11/11 05:32:50;;;;;;;1.63;0.95;;;14.20;99.90;;;;;;5022456;28;20083;-82
2022/11/11 05:35:17;;;;;;;2.63;1.17;;;14.20;99.90;;;;;;5021186;28;20436;-83
2022/11/11 05:38:18;;;;;;;0.60;0.50;;;14.20;99.90;;;;;;5007059;28;20536;-83
2022/11/11 05:40:30;;;;;;;1.40;0.82;;;14.20;99.90;;;;;;5021802;28;20083;-82
2022/11/11 05:42:57;;;;;;;2.05;0.90;;;14.30;99.90;;;;;;5015473;28;20107;-81
2022/11/11 05:45:24;;;;;;;1.95;0.73;;;14.30;99.90;;;;;;5031289;28;20045;-81
2022/11/11 05:47:51;;;;;;;2.83;0.80;;;14.30;99.90;;;;;;5026268;28;20053;-81
2022/11/11 05:50:18;;;;;;;3.42;0.93;;;14.20;99.90;;;;;;5032216;28;20061;-82
2022/11/11 05:52:49;;;;;;;1.42;0.60;;;14.20;99.90;;;;;;5009708;28;20065;-82
2022/11/11 05:55:15;;;;;;;1.10;0.50;;;14.20;99.90;;;;;;5014107;28;20046;-82
2022/11/11 05:57:42;;;;;;;0.77;0.45;;;14.20;99.90;;;;;;5029568;28;20501;-83
2022/11/11 06:00:10;;;;;;;0.93;0.57;;;14.20;99.90;;;;;;5032372;28;20059;-83
2022/11/11 06:02:37;;;;;;;1.25;0.73;;;14.20;99.90;;;;;;5007109;28;20057;-83
2022/11/11 06:05:04;;;;;;;1.77;0.60;;;14.20;99.90;;;;;;5024830;28;20105;-83
2022/11/11 06:07:31;;;;;;;1.80;0.60;;;14.20;99.90;;;;;;5008843;28;20057;-83
2022/11/11 06:10:29;;;;;;;1.33;0.63;;;14.20;99.90;;;;;;5034627;28;20063;-83
2022/11/11 06:15:31;;;;;;;1.20;0.52;;;14.20;99.90;;;;;;5030490;28;20511;-82
2022/11/11 06:17:58;;;;;;;0.90;0.50;;;14.20;99.90;;;;;;5026523;28;20060;-82
2022/11/11 06:20:26;;;;;;;1.30;0.55;;;14.20;99.90;;;;;;5029396;28;20065;-84
2022/11/11 06:22:55;;;;;;;1.02;0.40;;;14.20;99.90;;;;;;5030062;28;20060;-83
2022/11/11 06:28:11;;;;;;;1.48;0.50;;;14.20;99.90;;;;;;5010709;28;20049;-81
2022/11/11 06:30:38;;;;;;;1.25;0.60;;;14.20;99.90;;;;;;5031386;28;20049;-81
2022/11/11 06:33:16;;;;;;;1.45;0.47;;;14.20;99.90;;;;;;5030205;28;20138;-81
2022/11/11 06:35:44;;;;;;;1.05;0.55;;;14.20;99.90;;;;;;5032247;28;20144;-81
2022/11/11 06:38:11;;;;;;;0.70;0.40;;;14.30;99.90;;;;;;5019292;28;20132;-81
2022/11/11 06:40:38;;;;;;;2.25;0.75;;;14.30;99.90;;;;;;5036269;28;20049;-81
2022/11/11 06:43:04;;;;;;;1.40;0.70;;;14.30;99.90;;;;;;5035530;28;20049;-82
2022/11/11 06:45:32;;;;;;;2.03;0.70;;;14.40;99.90;;;;;;5039902;28;20923;-83
2022/11/11 06:47:59;;;;;;;1.38;0.68;;;14.40;99.90;;;;;;5032084;28;20493;-84
2022/11/11 06:50:27;;;;;;;1.55;0.75;;;14.40;99.90;;;;;;5026656;28;20064;-81
2022/11/11 06:52:55;;;;;;;1.50;0.70;;;14.50;99.90;;;;;;5027464;28;20056;-81
2022/11/11 06:55:21;;;;;;;1.67;0.55;;;14.50;99.90;;;;;;5022263;28;20141;-83
2022/11/11 06:57:48;;;;;;;1.25;0.50;;;14.60;99.90;;;;;;5037776;28;20827;-82
2022/11/11 07:00:17;;;;;;;1.73;0.77;;;14.60;99.90;;;;;;5023433;28;20505;-81
2022/11/11 07:02:45;;;;;;;0.75;0.57;;;14.70;99.90;;;;;;5023036;28;20521;-82
2022/11/11 07:05:14;;;;;;;2.30;0.88;;;14.70;99.90;;;;;;5038416;28;20134;-81
2022/11/11 07:07:41;;;;;;;2.03;0.50;;;14.70;99.90;;;;;;5039739;28;20052;-80
2022/11/11 07:10:09;;;;;;;1.30;0.60;;;14.70;99.90;;;;;;5037560;28;20057;-79
2022/11/11 07:12:39;;;;;;;2.40;0.70;;;14.80;99.90;;;;;;5037504;28;20501;-80
2022/11/11 07:15:06;;;;;;;1.05;0.55;;;14.70;99.90;;;;;;5009127;28;20057;-79
2022/11/11 07:17:32;;;;;;;1.75;0.63;;;14.80;99.90;;;;;;5041423;28;20045;-79
2022/11/11 07:20:00;;;;;;;2.50;0.63;;;14.80;99.90;;;;;;5037719;28;20068;-80
2022/11/11 07:22:26;;;;;;;1.48;0.60;;;14.80;99.90;;;;;;5041743;28;20049;-79
2022/11/11 07:24:53;;;;;;;2.20;0.88;;;14.80;99.90;;;;;;5021024;28;20053;-79
2022/11/11 07:27:20;;;;;;;1.50;0.68;;;14.80;99.90;;;;;;5027470;28;20059;-80
2022/11/11 07:29:47;;;;;;;1.63;0.95;;;14.80;99.90;;;;;;5038852;28;20076;-81
2022/11/11 07:32:16;;;;;;;1.35;0.70;;;14.80;99.90;;;;;;5040459;28;20045;-80
2022/11/11 07:34:45;;;;;;;1.25;1.05;;;14.80;99.90;;;;;;5037991;28;20052;-79
2022/11/11 07:37:12;;;;;;;2.00;0.60;;;14.80;99.90;;;;;;5040672;28;20575;-79
2022/11/11 07:39:38;;;;;;;1.52;0.70;;;14.80;99.90;;;;;;5040618;28;20053;-80
2022/11/11 07:42:05;;;;;;;1.08;0.70;;;14.90;99.90;;;;;;5041664;28;20416;-79
2022/11/11 07:44:32;;;;;;;2.67;0.80;;;14.90;99.90;;;;;;5038144;28;20151;-79
2022/11/11 07:46:59;;;;;;;1.85;0.77;;;14.90;99.90;;;;;;5042306;28;20075;-80
2022/11/11 07:49:26;;;;;;;1.73;0.70;;;14.90;99.90;;;;;;5038866;28;20508;-79
2022/11/11 07:51:52;;;;;;;2.33;0.98;;;14.90;99.90;;;;;;5040522;28;20129;-80
2022/11/11 07:54:19;;;;;;;1.70;0.80;;;14.90;99.90;;;;;;5041792;28;20064;-80
2022/11/11 07:56:46;;;;;;;2.30;0.80;;;14.90;99.90;;;;;;5032269;28;20057;-79
2022/11/11 07:59:13;;;;;;;0.95;0.60;;;15.00;99.90;;;;;;5030728;28;20089;-80
2022/11/11 08:01:39;;;;;;;1.48;0.82;;;15.00;99.90;;;;;;5037982;28;20049;-80
2022/11/11 08:04:06;;;;;;;0.90;0.60;;;15.00;99.90;;;;;;5027550;28;20355;-81
2022/11/11 08:06:33;;;;;;;1.23;0.73;;;15.00;99.90;;;;;;5024314;28;20166;-80
2022/11/11 08:09:01;;;;;;;2.55;0.60;;;15.00;99.90;;;;;;5035338;28;20538;-81
2022/11/11 08:14:13;;;;;;;1.63;0.80;;;15.10;99.90;;;;;;5031758;28;20124;-80
2022/11/11 08:16:41;;;;;;;2.25;0.80;;;15.10;99.90;;;;;;5023555;28;20057;-80
2022/11/11 08:19:08;;;;;;;2.35;0.70;;;15.20;99.90;;;;;;5024316;28;20045;-80
2022/11/11 08:21:35;;;;;;;1.67;0.70;;;15.20;99.90;;;;;;5022086;28;20127;-80
2022/11/11 08:24:02;;;;;;;2.00;0.73;;;15.20;99.90;;;;;;5035788;28;20678;-81
2022/11/11 08:26:49;;;;;;;0.80;0.47;;;15.20;99.90;;;;;;5034551;28;20064;-81
2022/11/11 08:29:16;;;;;;;2.17;0.75;;;15.30;99.90;;;;;;5003224;28;20469;-81
2022/11/11 08:31:43;;;;;;;1.15;0.75;;;15.30;99.90;;;;;;5020653;28;20056;-81
2022/11/11 08:34:10;;;;;;;2.13;0.75;;;15.30;99.90;;;;;;5034338;28;20053;-81
2022/11/11 08:36:37;;;;;;;3.25;0.90;;;15.30;99.90;;;;;;5034539;28;20049;-80
2022/11/11 08:39:04;;;;;;;1.98;0.98;;;15.30;99.90;;;;;;5023418;28;20147;-80
2022/11/11 08:41:30;;;;;;;2.75;0.90;;;15.30;99.90;;;;;;5037699;28;20104;-80
2022/11/11 08:43:59;;;;;;;2.35;1.20;;;15.40;99.90;;;;;;5026244;28;20053;-79
2022/11/11 08:46:26;;;;;;;1.83;0.98;;;15.40;99.90;;;;;;5019352;28;20594;-80
2022/11/11 08:48:53;;;;;;;1.35;0.82;;;15.40;99.90;;;;;;5009020;28;20155;-80
2022/11/11 08:51:20;;;;;;;1.65;0.90;;;15.40;99.90;;;;;;5038346;28;20068;-81
2022/11/11 08:53:46;;;;;;;1.13;0.60;;;15.40;99.90;;;;;;5022622;28;20408;-79
2022/11/11 08:56:15;;;;;;;0.85;0.63;;;15.50;99.90;;;;;;5040583;28;20072;-80
2022/11/11 08:58:42;;;;;;;2.03;0.80;;;15.50;99.90;;;;;;5038421;28;20041;-81
2022/11/11 09:01:12;;;;;;;1.23;0.50;;;15.50;99.90;;;;;;5031147;28;20108;-80
2022/11/11 09:03:42;;;;;;;1.98;0.90;;;15.40;99.90;;;;;;5031858;28;20064;-80
2022/11/11 09:06:10;;;;;;;2.63;1.20;;;15.40;99.90;;;;;;5037538;28;20560;-81
2022/11/11 09:08:40;;;;;;;1.35;0.73;;;15.40;99.90;;;;;;5039449;28;20053;-80
2022/11/11 09:11:06;;;;;;;2.60;0.90;;;15.40;99.90;;;;;;5038550;28;20056;-80
2022/11/11 09:13:33;;;;;;;0.95;0.70;;;15.40;99.90;;;;;;5040650;28;20089;-80
2022/11/11 09:16:07;;;;;;;1.40;0.90;;;15.40;99.90;;;;;;5037522;28;20054;-80
2022/11/11 09:18:34;;;;;;;1.58;0.75;;;15.40;99.90;;;;;;5019523;28;20053;-80
2022/11/11 09:21:02;;;;;;;1.08;0.60;;;15.40;99.90;;;;;;5020585;28;20063;-80
2022/11/11 09:23:29;;;;;;;1.55;0.73;;;15.40;99.90;;;;;;5033944;28;20148;-80
2022/11/11 09:25:57;;;;;;;1.83;0.77;;;15.40;99.90;;;;;;5033726;28;20041;-80
2022/11/11 09:28:23;;;;;;;2.28;0.90;;;15.40;99.90;;;;;;5021489;28;20059;-80
2022/11/11 09:30:50;;;;;;;1.83;0.73;;;15.40;99.90;;;;;;5027601;28;20427;-78
2022/11/11 09:33:18;;;;;;;1.70;0.70;;;15.40;99.90;;;;;;5028659;28;20051;-80
2022/11/11 09:35:45;;;;;;;1.42;0.80;;;15.40;99.90;;;;;;5021727;28;20484;-79
2022/11/11 09:38:12;;;;;;;2.08;0.93;;;15.40;99.90;;;;;;5018371;28;20350;-80
2022/11/11 09:40:48;;;;;;;1.58;0.85;;;15.40;99.90;;;;;;5035150;28;20062;-80
2022/11/11 09:43:39;;;;;;;1.23;0.60;;;15.50;99.90;;;;;;5020024;28;20041;-80
2022/11/11 09:46:28;;;;;;;1.73;0.80;;;15.60;99.90;;;;;;5022707;28;20059;-80
2022/11/11 09:48:57;;;;;;;1.73;0.77;;;15.60;99.90;;;;;;5022875;28;20049;-80
2022/11/11 09:51:45;;;;;;;2.75;0.98;;;15.70;99.90;;;;;;5022195;28;20061;-80
2022/11/11 09:54:16;;;;;;;1.75;1.00;;;15.80;99.90;;;;;;5024742;28;20412;-80
2022/11/11 09:56:48;;;;;;;1.60;0.68;;;15.90;99.90;;;;;;5026609;28;20103;-80
2022/11/11 09:59:26;;;;;;;1.60;0.85;;;16.00;99.90;;;;;;5021791;28;20247;-80
2022/11/11 10:01:57;;;;;;;1.13;0.70;;;16.00;99.90;;;;;;5004172;28;20056;-81
2022/11/11 10:04:31;;;;;;;0.93;0.60;;;16.10;99.90;;;;;;5015529;28;20065;-80
2022/11/11 10:07:03;;;;;;;1.40;0.70;;;16.20;99.90;;;;;;5017253;28;20532;-80
2022/11/11 10:09:44;;;;;;;0.90;0.63;;;16.30;99.90;;;;;;5001506;28;20373;-79
2022/11/11 10:12:12;;;;;;;1.77;0.73;;;16.30;99.90;;;;;;5019446;28;20510;-79
2022/11/11 10:14:49;;;;;;;1.85;1.13;;;16.40;99.90;;;;;;5018568;28;20609;-80
2022/11/11 10:17:39;;;;;;;2.25;0.80;;;16.40;99.90;;;;;;5020157;28;20053;-82
2022/11/11 10:20:27;;;;;;;1.85;1.60;;;16.40;99.90;;;;;;5032688;28;20049;-79
2022/11/11 10:23:07;;;;;;;1.38;0.70;;;16.40;99.90;;;;;;5012459;28;20333;-79
2022/11/11 10:25:33;;;;;;;1.73;0.82;;;16.40;99.90;;;;;;4995423;28;20535;-78
2022/11/11 10:28:01;;;;;;;3.03;1.40;;;16.40;99.90;;;;;;5004292;28;20087;-79
2022/11/11 10:30:29;;;;;;;2.20;0.68;;;16.40;99.90;;;;;;5010218;28;20049;-79
2022/11/11 10:33:16;;;;;;;1.45;0.80;;;16.40;99.90;;;;;;5035693;28;20122;-79
2022/11/11 10:35:43;;;;;;;2.95;1.20;;;16.40;99.90;;;;;;5037323;28;20197;-78
2022/11/11 10:38:10;;;;;;;2.17;1.00;;;16.40;99.90;;;;;;5017464;28;20258;-79
2022/11/11 10:40:43;;;;;;;2.15;1.00;;;16.40;99.90;;;;;;5019537;28;20552;-79
2022/11/11 10:43:17;;;;;;;1.38;0.80;;;16.50;99.90;;;;;;5005585;28;20053;-79
2022/11/11 10:45:59;;;;;;;2.67;0.90;;;16.50;99.90;;;;;;4986757;28;20045;-79
2022/11/11 10:48:54;;;;;;;1.90;1.00;;;16.60;99.90;;;;;;5029639;28;20068;-79
2022/11/11 10:51:21;;;;;;;1.35;0.60;;;16.60;99.90;;;;;;5039810;28;20105;-80
2022/11/11 10:53:59;;;;;;;1.17;0.65;;;16.60;99.90;;;;;;5035452;28;20139;-80
2022/11/11 10:56:42;;;;;;;1.83;0.95;;;16.60;99.90;;;;;;5042831;28;20049;-80
2022/11/11 10:59:17;;;;;;;2.10;0.90;;;16.50;99.90;;;;;;5029824;28;20109;-79
2022/11/11 11:01:49;;;;;;;2.25;0.75;;;16.50;99.90;;;;;;5025139;28;20072;-79
2022/11/11 11:04:36;;;;;;;1.42;0.60;;;16.60;99.90;;;;;;5017517;28;20078;-79
2022/11/11 11:07:04;;;;;;;1.67;1.02;;;16.80;99.90;;;;;;4997529;28;20152;-80
2022/11/11 11:09:34;;;;;;;2.08;0.80;;;17.00;99.90;;;;;;5008478;28;20060;-79
2022/11/11 11:12:06;;;;;;;2.28;0.93;;;17.20;99.90;;;;;;5021433;28;20132;-87
2022/11/11 11:14:41;;;;;;;1.50;0.70;;;17.30;99.90;;;;;;5024961;28;20063;-86
2022/11/11 11:17:21;;;;;;;1.42;0.98;;;17.40;99.90;;;;;;5005313;28;20904;-86
2022/11/11 11:20:13;;;;;;;2.50;1.00;;;17.40;99.90;;;;;;5021503;28;20049;-87
2022/11/11 11:22:50;;;;;;;1.83;0.75;;;17.50;99.90;;;;;;5010148;28;20049;-86
2022/11/11 11:25:21;;;;;;;1.50;1.10;;;17.50;99.90;;;;;;5011394;28;20133;-85
2022/11/11 11:27:51;;;;;;;1.52;0.70;;;17.50;99.90;;;;;;5022915;28;20054;-85
2022/11/11 11:30:23;;;;;;;2.33;0.70;;;17.60;99.90;;;;;;5035527;28;20055;-87
2022/11/11 11:33:00;;;;;;;1.65;0.98;;;17.60;99.90;;;;;;5018594;28;20061;-86
2022/11/11 11:35:39;;;;;;;2.50;1.02;;;17.60;99.90;;;;;;5017165;28;20412;-86
2022/11/11 11:38:07;;;;;;;2.10;1.05;;;17.60;99.90;;;;;;5032982;28;20081;-87
2022/11/11 11:40:47;;;;;;;0.93;0.77;;;17.50;99.90;;;;;;5020939;28;20053;-86
2022/11/11 11:43:33;;;;;;;3.95;1.30;;;17.40;99.90;;;;;;5011562;28;20041;-85
2022/11/11 11:46:02;;;;;;;1.35;0.70;;;17.30;99.90;;;;;;5026401;28;20104;-86
2022/11/11 11:48:59;;;;;;;1.33;0.98;;;17.30;99.90;;;;;;4994995;28;20049;-86
2022/11/11 11:51:34;;;;;;;1.23;0.75;;;17.20;99.90;;;;;;5046009;28;20668;-86
2022/11/11 11:54:23;;;;;;;1.55;0.85;;;17.20;99.90;;;;;;5009544;28;20060;-86
2022/11/11 11:56:51;;;;;;;1.25;0.80;;;17.20;99.90;;;;;;5039178;28;20061;-87
2022/11/11 11:59:40;;;;;;;1.75;0.80;;;17.20;99.90;;;;;;5018524;28;20611;-86
2022/11/11 12:02:32;;;;;;;2.22;1.00;;;17.30;99.90;;;;;;5027066;28;20548;-86
2022/11/11 12:05:48;;;;;;;1.58;0.82;;;17.20;99.90;;;;;;5026030;28;20129;-87
2022/11/11 12:08:46;;;;;;;1.55;0.85;;;17.10;99.90;;;;;;4988470;28;20454;-86
2022/11/11 12:11:40;;;;;;;0.77;0.70;;;17.00;99.90;;;;;;5044948;28;20063;-85
2022/11/11 12:14:34;;;;;;;1.15;0.60;;;17.00;99.90;;;;;;5021381;28;20079;-85
2022/11/11 12:17:22;;;;;;;1.30;0.90;;;16.90;99.90;;;;;;5025174;28;20622;-86
2022/11/11 12:20:13;;;;;;;1.00;0.60;;;16.90;99.90;;;;;;5018158;28;20494;-85
2022/11/11 12:22:50;;;;;;;1.70;0.88;;;16.90;99.90;;;;;;5045837;28;20056;-86
2022/11/11 12:25:37;;;;;;;2.15;0.73;;;16.80;99.90;;;;;;5028812;28;20049;-85
2022/11/11 12:28:06;;;;;;;1.17;0.70;;;16.80;99.90;;;;;;5029675;28;20484;-88
2022/11/11 12:30:33;;;;;;;1.48;0.82;;;16.70;99.90;;;;;;5047423;28;20139;-87
2022/11/11 12:33:26;;;;;;;1.83;0.60;;;16.60;99.90;;;;;;5007461;28;20061;-86
2022/11/11 12:36:04;;;;;;;2.63;1.17;;;16.50;99.90;;;;;;5037580;28;20548;-86
2022/11/11 12:38:56;;;;;;;1.90;0.80;;;16.40;99.90;;;;;;5034158;28;20136;-87
2022/11/11 12:41:26;;;;;;;0.82;0.60;;;16.40;99.90;;;;;;5041366;28;20053;-87
2022/11/11 12:44:04;;;;;;;1.67;0.88;;;16.40;99.90;;;;;;5037861;28;20053;-87
2022/11/11 12:46:40;;;;;;;1.30;0.90;;;16.30;99.90;;;;;;5022504;28;20544;-88
2022/11/11 12:49:22;;;;;;;1.38;0.70;;;16.40;99.90;;;;;;5024414;28;20053;-87
2022/11/11 12:52:15;;;;;;;2.00;0.70;;;16.40;99.90;;;;;;5026210;28;20053;-87
2022/11/11 12:55:00;;;;;;;2.78;1.35;;;16.40;99.90;;;;;;5036555;28;20048;-87
2022/11/11 12:57:45;;;;;;;2.00;0.80;;;16.40;99.90;;;;;;5026857;28;20046;-88
2022/11/11 13:00:19;;;;;;;2.72;1.02;;;16.50;99.90;;;;;;5010364;28;20084;-87
2022/11/11 13:03:05;;;;;;;1.77;0.73;;;16.60;99.90;;;;;;5022089;28;20045;-87
2022/11/11 13:05:56;;;;;;;1.42;0.57;;;16.70;99.90;;;;;;5024956;28;20076;-87
2022/11/11 13:08:37;;;;;;;1.70;0.90;;;16.70;99.90;;;;;;5018875;28;20065;-87
2022/11/11 13:11:12;;;;;;;1.45;0.82;;;17.00;99.90;;;;;;5014738;28;20049;-87
2022/11/11 13:14:07;;;;;;;2.45;1.10;;;17.30;99.90;;;;;;5034269;28;20470;-85
2022/11/11 13:16:34;;;;;;;2.50;1.00;;;17.60;99.90;;;;;;5022815;28;20488;-86
2022/11/11 13:19:13;;;;;;;3.28;1.13;;;17.90;99.90;;;;;;5014284;28;20085;-85
2022/11/11 13:21:50;;;;;;;1.58;0.75;;;18.10;99.90;;;;;;5006392;28;20056;-86
2022/11/11 13:24:19;;;;;;;2.28;1.00;;;18.40;99.90;;;;;;5004376;28;20049;-86
2022/11/11 13:26:56;;;;;;;1.60;0.80;;;18.50;99.90;;;;;;5023108;28;20655;-86
2022/11/11 13:29:31;;;;;;;1.35;0.80;;;18.50;99.90;;;;;;5024415;28;20050;-87
2022/11/11 13:31:59;;;;;;;1.83;0.80;;;18.10;99.90;;;;;;5043674;28;20525;-85
2022/11/11 13:34:26;;;;;;;1.30;0.75;;;18.00;99.90;;;;;;5008436;28;20055;-85
2022/11/11 13:36:54;;;;;;;1.88;0.55;;;18.00;99.90;;;;;;5008243;28;20170;-86
2022/11/11 13:39:22;;;;;;;0.82;0.50;;;17.90;99.90;;;;;;5010093;28;20049;-87
2022/11/11 13:41:52;;;;;;;2.33;0.90;;;17.80;99.90;;;;;;5042228;28;20076;-86
2022/11/11 13:44:26;;;;;;;1.05;0.60;;;17.70;99.90;;;;;;5024313;28;20053;-86
2022/11/11 13:46:59;;;;;;;0.80;0.60;;;17.50;99.90;;;;;;5026123;28;20148;-86
2022/11/11 13:49:31;;;;;;;1.08;0.60;;;17.70;99.90;;;;;;5007728;28;20207;-85
2022/11/11 13:52:04;;;;;;;1.98;1.00;;;17.80;99.90;;;;;;5042284;28;20053;-86
2022/11/11 13:54:32;;;;;;;2.53;0.82;;;17.60;99.90;;;;;;5006651;28;20053;-86
2022/11/11 13:57:17;;;;;;;0.98;0.50;;;17.40;99.90;;;;;;5005837;28;20144;-86
2022/11/11 14:00:19;;;;;;;0.68;0.30;;;17.30;99.90;;;;;;5031716;28;20558;-86
2022/11/11 14:02:46;;;;;;;1.10;0.73;;;17.10;99.90;;;;;;5023634;28;20095;-87
2022/11/11 14:05:16;;;;;;;0.77;0.75;;;17.30;99.90;;;;;;5002271;28;20061;-84
2022/11/11 14:07:43;;;;;;;1.17;0.70;;;17.80;99.90;;;;;;5021703;28;20140;-86
2022/11/11 14:10:30;;;;;;;0.52;0.40;;;18.20;99.90;;;;;;5029330;28;20180;-85
2022/11/11 14:13:17;;;;;;;0.65;0.52;;;18.30;99.90;;;;;;5035940;28;20571;-86
2022/11/11 14:15:49;;;;;;;0.52;0.40;;;18.70;99.90;;;;;;5012609;28;20049;-87
2022/11/11 14:18:19;;;;;;;0.63;0.60;;;18.60;99.90;;;;;;5009026;28;20354;-87
2022/11/11 14:20:52;;;;;;;0.98;0.60;;;18.50;99.90;;;;;;5036105;28;20049;-87
2022/11/11 14:23:22;;;;;;;1.70;0.70;;;18.30;99.90;;;;;;5017857;28;20144;-87
2022/11/11 14:25:51;;;;;;;1.45;0.63;;;17.90;99.90;;;;;;5045419;28;20152;-88
2022/11/11 14:28:23;;;;;;;0.57;0.40;;;17.80;99.90;;;;;;5027538;28;20122;-86
2022/11/11 14:30:50;;;;;;;1.10;0.50;;;17.60;99.90;;;;;;5008378;28;20152;-86
2022/11/11 14:33:23;;;;;;;0.52;0.50;;;17.40;99.90;;;;;;5013432;28;20363;-85
2022/11/11 14:36:13;;;;;;;0.75;0.60;;;17.20;99.90;;;;;;5029606;28;20095;-85
2022/11/11 14:39:17;;;;;;;0.55;0.50;;;17.10;99.90;;;;;;5032606;28;20675;-85
2022/11/11 14:41:48;;;;;;;0.70;0.50;;;17.10;99.90;;;;;;5042533;28;20041;-86